Time;durP1;ratioP1;P1;durP2;ratioP2;P2;SDS_P1;SDS_P2;PMS_P1;PMS_P2;Temp;Humidity;BMP_temperature;BMP_pressure;BME280_temperature;BME280_humidity;BME280_pressure;Samples;Min_cycle;Max_cycle;Signal;HPM_P1;HPM_P2
2023/06/13 00:01:35;;;;;;;;;;;;;;;21.73;35.94;101334.34;5038554;28;19917;-62
2023/06/13 00:04:02;;;;;;;;;;;;;;;21.68;35.64;101331.47;5037831;28;19925;-62
2023/06/13 00:06:29;;;;;;;;;;;;;;;21.64;36.10;101325.72;5043740;28;19920;-62
2023/06/13 00:08:54;;;;;;;;;;;;;;;21.57;36.35;101325.00;5039408;28;20023;-62
2023/06/13 00:11:19;;;;;;;;;;;;;;;21.52;36.58;101322.19;5042326;28;20058;-62
2023/06/13 00:13:45;;;;;;;;;;;;;;;21.48;36.40;101326.41;5039600;28;20365;-62
2023/06/13 00:16:11;;;;;;;;;;;;;;;21.47;35.95;101332.88;5034738;28;20000;-61
2023/06/13 00:18:37;;;;;;;;;;;;;;;21.45;36.34;101326.88;5032135;28;19956;-63
2023/06/13 00:21:03;;;;;;;;;;;;;;;21.42;36.18;101332.75;5033566;28;20190;-62
2023/06/13 00:23:29;;;;;;;;;;;;;;;21.41;36.24;101328.38;5041081;28;19917;-62
2023/06/13 00:25:54;;;;;;;;;;;;;;;21.38;36.43;101328.81;5035205;28;20381;-62
2023/06/13 00:28:19;;;;;;;;;;;;;;;21.38;36.57;101323.41;5036264;28;19920;-62
2023/06/13 00:30:45;;;;;;;;;;;;;;;21.37;36.31;101325.28;5039066;28;20119;-62
2023/06/13 00:33:17;;;;;;;;;;;;;;;21.34;36.64;101331.16;5039759;28;19917;-62
2023/06/13 00:35:43;;;;;;;;;;;;;;;21.31;36.59;101329.75;5039449;28;19917;-62
2023/06/13 00:38:08;;;;;;;;;;;;;;;21.28;36.71;101327.50;5046119;28;19921;-62
2023/06/13 00:40:33;;;;;;;;;;;;;;;21.25;36.63;101333.38;5045427;28;19917;-62
2023/06/13 00:42:58;;;;;;;;;;;;;;;21.20;36.64;101330.50;5037310;28;19968;-62
2023/06/13 00:45:27;;;;;;;;;;;;;;;21.17;36.55;101336.38;5045839;28;19917;-62
2023/06/13 00:47:55;;;;;;;;;;;;;;;21.13;36.93;101323.56;5049166;28;19921;-62
2023/06/13 00:50:21;;;;;;;;;;;;;;;21.10;36.87;101321.28;5045341;28;19925;-62
2023/06/13 00:52:47;;;;;;;;;;;;;;;21.07;37.08;101321.75;5048290;28;20403;-61
2023/06/13 00:55:14;;;;;;;;;;;;;;;21.02;37.11;101317.03;5042459;28;19952;-62
2023/06/13 00:57:39;;;;;;;;;;;;;;;20.89;37.38;101301.00;5047714;28;19921;-62
2023/06/13 01:00:05;;;;;;;;;;;;;;;20.94;37.49;101317.34;5048601;28;19982;-61
2023/06/13 01:02:33;;;;;;;;;;;;;;;20.90;37.63;101319.69;5044216;28;19917;-62
2023/06/13 01:05:00;;;;;;;;;;;;;;;20.88;37.39;101319.09;5039494;28;19917;-62
2023/06/13 01:07:29;;;;;;;;;;;;;;;20.84;37.70;101309.81;5038764;28;20382;-62
2023/06/13 01:09:55;;;;;;;;;;;;;;;20.84;37.51;101314.38;5045174;28;20347;-62
2023/06/13 01:12:28;;;;;;;;;;;;;;;20.82;37.73;101317.31;5036597;28;20401;-62
2023/06/13 01:15:04;;;;;;;;;;;;;;;20.76;37.90;101304.69;5045137;28;19970;-62
2023/06/13 01:17:33;;;;;;;;;;;;;;;20.75;37.87;101311.13;5038052;28;20386;-62
2023/06/13 01:20:04;;;;;;;;;;;;;;;20.74;38.01;101309.50;5036883;28;20309;-62
2023/06/13 01:22:52;;;;;;;;;;;;;;;20.72;37.84;101308.88;5042584;28;20429;-62
2023/06/13 01:25:37;;;;;;;;;;;;;;;20.71;37.96;101312.63;5030377;28;20390;-62
2023/06/13 01:28:02;;;;;;;;;;;;;;;20.68;38.14;101313.09;5030546;28;19917;-62
2023/06/13 01:30:28;;;;;;;;;;;;;;;20.66;38.42;101317.91;5041660;28;19978;-62
2023/06/13 01:32:54;;;;;;;;;;;;;;;20.63;38.38;101313.78;5040602;28;19983;-61
2023/06/13 01:35:21;;;;;;;;;;;;;;;20.59;38.68;101323.38;5042203;28;19940;-62
2023/06/13 01:37:46;;;;;;;;;;;;;;;20.57;38.53;101319.25;5037923;28;19955;-62
2023/06/13 01:40:13;;;;;;;;;;;;;;;20.56;38.62;101325.69;5033825;28;19948;-62
2023/06/13 01:42:39;;;;;;;;;;;;;;;20.52;38.66;101321.78;5039874;28;19959;-62
2023/06/13 01:45:04;;;;;;;;;;;;;;;20.53;38.94;101326.13;5013357;28;19913;-62
2023/06/13 01:47:32;;;;;;;;;;;;;;;20.53;39.01;101318.03;5026486;28;19913;-62
2023/06/13 01:49:58;;;;;;;;;;;;;;;20.49;39.04;101317.66;5045859;28;20296;-62
2023/06/13 01:52:26;;;;;;;;;;;;;;;20.44;39.48;101312.13;5045481;28;20270;-62
2023/06/13 01:54:58;;;;;;;;;;;;;;;20.38;39.62;101321.06;5043115;28;20523;-62
2023/06/13 01:57:26;;;;;;;;;;;;;;;20.30;39.57;101319.50;5048813;28;20012;-62
2023/06/13 01:59:55;;;;;;;;;;;;;;;20.23;39.69;101307.09;5039490;28;19921;-63
2023/06/13 02:02:21;;;;;;;;;;;;;;;20.18;39.76;101310.47;5032806;28;19951;-62
2023/06/13 02:04:48;;;;;;;;;;;;;;;20.15;40.21;101308.22;5043657;28;20692;-62
2023/06/13 02:07:13;;;;;;;;;;;;;;;20.10;40.63;101308.91;5049326;28;19969;-62
2023/06/13 02:09:38;;;;;;;;;;;;;;;20.06;40.44;101306.88;5039782;28;19921;-62
2023/06/13 02:12:04;;;;;;;;;;;;;;;20.00;40.61;101308.59;5032855;28;19920;-62
2023/06/13 02:14:32;;;;;;;;;;;;;;;19.96;40.67;101310.09;5043244;28;20007;-62
2023/06/13 02:16:59;;;;;;;;;;;;;;;19.94;40.60;101308.63;5034467;28;19974;-62
2023/06/13 02:19:24;;;;;;;;;;;;;;;19.92;40.63;101310.72;5037147;28;19917;-62
2023/06/13 02:21:50;;;;;;;;;;;;;;;19.90;40.46;101307.41;5048087;28;19924;-62
2023/06/13 02:24:15;;;;;;;;;;;;;;;19.89;40.97;101313.84;5043437;28;19917;-62
2023/06/13 02:26:40;;;;;;;;;;;;;;;19.85;40.91;101310.78;5042746;28;20055;-62
2023/06/13 02:29:07;;;;;;;;;;;;;;;19.83;40.94;101312.88;5036580;28;19920;-63
2023/06/13 02:31:35;;;;;;;;;;;;;;;19.81;40.88;101306.88;5038650;28;19976;-62
2023/06/13 02:34:00;;;;;;;;;;;;;;;19.78;41.34;101315.41;5039023;28;19925;-62
2023/06/13 02:36:25;;;;;;;;;;;;;;;19.74;41.56;101314.19;5034946;28;19917;-62
2023/06/13 02:38:50;;;;;;;;;;;;;;;19.69;41.55;101316.72;5039739;28;19916;-62
2023/06/13 02:41:16;;;;;;;;;;;;;;;19.65;41.70;101315.50;5044553;28;19967;-62
2023/06/13 02:43:41;;;;;;;;;;;;;;;19.58;42.45;101320.13;5037293;28;19913;-62
2023/06/13 02:46:06;;;;;;;;;;;;;;;19.53;42.52;101323.47;5031443;28;19975;-63
2023/06/13 02:48:32;;;;;;;;;;;;;;;19.49;42.82;101317.66;5046131;28;19920;-63
2023/06/13 02:50:57;;;;;;;;;;;;;;;19.45;42.92;101321.84;5038291;28;20374;-62
2023/06/13 02:53:22;;;;;;;;;;;;;;;19.43;42.91;101323.91;5029736;28;19921;-62
2023/06/13 02:55:48;;;;;;;;;;;;;;;19.39;43.38;101322.72;5045971;28;19974;-62
2023/06/13 02:58:13;;;;;;;;;;;;;;;19.37;43.15;101319.41;5037429;28;19924;-62
2023/06/13 03:00:38;;;;;;;;;;;;;;;19.34;43.66;101313.59;5039271;28;19913;-62
2023/06/13 03:03:04;;;;;;;;;;;;;;;19.33;43.89;101328.09;5048978;28;19917;-62
2023/06/13 03:05:30;;;;;;;;;;;;;;;19.27;43.61;101313.66;5041820;28;19913;-62
2023/06/13 03:07:56;;;;;;;;;;;;;;;19.26;43.66;101316.56;5039947;28;19978;-62
2023/06/13 03:10:21;;;;;;;;;;;;;;;19.23;44.05;101317.00;5035407;28;19920;-62
2023/06/13 03:12:46;;;;;;;;;;;;;;;19.22;43.58;101318.88;5048691;28;19927;-61
2023/06/13 03:15:12;;;;;;;;;;;;;;;19.21;44.16;101322.59;5043093;28;19955;-62
2023/06/13 03:17:37;;;;;;;;;;;;;;;19.15;44.28;101318.09;5033362;28;20410;-62
2023/06/13 03:20:05;;;;;;;;;;;;;;;19.11;43.94;101316.88;5035111;28;20351;-62
2023/06/13 03:22:30;;;;;;;;;;;;;;;19.08;44.59;101322.66;5042440;28;19921;-62
2023/06/13 03:24:56;;;;;;;;;;;;;;;19.06;44.46;101313.97;5036259;28;19989;-62
2023/06/13 03:27:21;;;;;;;;;;;;;;;19.03;44.54;101323.28;5035281;28;19921;-62
2023/06/13 03:29:46;;;;;;;;;;;;;;;18.98;45.02;101314.22;5041100;28;19920;-62
2023/06/13 03:32:12;;;;;;;;;;;;;;;18.90;45.13;101307.22;5042174;28;20249;-62
2023/06/13 03:34:38;;;;;;;;;;;;;;;18.86;45.42;101314.06;5030138;28;19936;-62
2023/06/13 03:37:05;;;;;;;;;;;;;;;18.81;45.24;101317.41;5041549;28;19917;-62
2023/06/13 03:39:30;;;;;;;;;;;;;;;18.79;44.89;101314.09;5027663;28;19920;-62
2023/06/13 03:41:55;;;;;;;;;;;;;;;18.78;45.53;101309.72;5035287;28;20301;-62
2023/06/13 03:44:21;;;;;;;;;;;;;;;18.76;45.30;101306.44;5036121;28;20544;-62
2023/06/13 03:46:46;;;;;;;;;;;;;;;18.73;46.14;101311.41;5041842;28;19917;-62
2023/06/13 03:49:11;;;;;;;;;;;;;;;18.68;46.26;101314.75;5035734;28;19944;-62
2023/06/13 03:51:37;;;;;;;;;;;;;;;18.64;46.70;101310.00;5034555;28;19924;-62
2023/06/13 03:54:02;;;;;;;;;;;;;;;18.62;47.34;101312.06;5048484;28;19921;-62
2023/06/13 03:56:27;;;;;;;;;;;;;;;18.61;47.24;101313.94;5040127;28;19913;-63
2023/06/13 03:58:53;;;;;;;;;;;;;;;18.57;47.22;101310.00;5038522;28;19966;-63
2023/06/13 04:01:18;;;;;;;;;;;;;;;18.53;47.53;101309.59;5030314;28;20030;-63
2023/06/13 04:03:44;;;;;;;;;;;;;;;18.50;47.53;101310.03;5036086;28;19974;-62
2023/06/13 04:06:09;;;;;;;;;;;;;;;18.51;47.99;101324.31;5029082;28;19936;-63
2023/06/13 04:08:38;;;;;;;;;;;;;;;18.47;47.97;101321.19;5041348;28;20011;-63
2023/06/13 04:11:03;;;;;;;;;;;;;;;18.42;48.16;101321.00;5033104;28;20443;-62
2023/06/13 04:13:28;;;;;;;;;;;;;;;18.41;48.17;101324.72;5037032;28;19952;-63
2023/06/13 04:15:54;;;;;;;;;;;;;;;18.39;48.26;101317.91;5032189;28;20012;-63
2023/06/13 04:18:21;;;;;;;;;;;;;;;18.34;48.13;101315.03;5035869;28;19921;-63
2023/06/13 04:20:46;;;;;;;;;;;;;;;18.34;48.19;101329.28;5036234;28;19912;-62
2023/06/13 04:23:13;;;;;;;;;;;;;;;18.31;48.40;101321.66;5033721;28;20267;-63
2023/06/13 04:25:40;;;;;;;;;;;;;;;18.30;49.03;101319.19;5039109;28;20313;-63
2023/06/13 04:28:07;;;;;;;;;;;;;;;18.30;49.48;101327.25;5038117;28;20340;-62
2023/06/13 04:30:32;;;;;;;;;;;;;;;18.32;49.58;101333.22;5032693;28;19950;-63
2023/06/13 04:32:58;;;;;;;;;;;;;;;18.32;49.14;101322.47;5034172;28;19916;-62
2023/06/13 04:35:23;;;;;;;;;;;;;;;18.31;49.51;101326.19;5036607;28;19920;-63
2023/06/13 04:37:49;;;;;;;;;;;;;;;18.32;49.69;101334.06;5037004;28;19928;-63
2023/06/13 04:40:16;;;;;;;;;;;;;;;18.28;49.35;101324.75;5039707;28;19921;-62
2023/06/13 04:42:47;;;;;;;;;;;;;;;18.34;49.25;101336.53;5044445;28;19919;-62
2023/06/13 04:45:13;;;;;;;;;;;;;;;18.37;49.72;101338.81;5045971;28;19912;-63
2023/06/13 04:47:38;;;;;;;;;;;;;;;18.40;49.62;101339.22;5042958;28;19925;-63
2023/06/13 04:50:04;;;;;;;;;;;;;;;18.42;49.79;101339.81;5041194;28;20464;-62
2023/06/13 04:52:32;;;;;;;;;;;;;;;18.44;49.71;101343.13;5050033;28;19923;-62
2023/06/13 04:55:02;;;;;;;;;;;;;;;18.50;49.68;101341.47;5041194;28;20022;-62
2023/06/13 04:57:27;;;;;;;;;;;;;;;18.55;49.38;101341.69;5047544;28;19921;-62
2023/06/13 04:59:53;;;;;;;;;;;;;;;18.59;49.41;101348.28;5042172;28;20078;-61
2023/06/13 05:02:19;;;;;;;;;;;;;;;18.65;49.48;101350.16;5040493;28;19923;-62
2023/06/13 05:04:44;;;;;;;;;;;;;;;18.70;49.16;101350.34;5048860;28;19917;-63
2023/06/13 05:07:09;;;;;;;;;;;;;;;18.75;49.14;101352.41;5040648;28;20415;-63
2023/06/13 05:09:35;;;;;;;;;;;;;;;18.81;49.21;101351.56;5027527;28;19920;-63
2023/06/13 05:12:00;;;;;;;;;;;;;;;18.85;49.68;101361.69;5042315;28;19931;-63
2023/06/13 05:14:25;;;;;;;;;;;;;;;18.91;49.34;101357.31;5039792;28;19928;-62
2023/06/13 05:16:55;;;;;;;;;;;;;;;18.97;48.96;101351.06;5041180;28;19921;-62
2023/06/13 05:19:20;;;;;;;;;;;;;;;19.04;48.66;101349.19;5040504;28;19921;-63
2023/06/13 05:21:46;;;;;;;;;;;;;;;19.09;48.90;101354.78;5036023;28;19913;-63
2023/06/13 05:24:12;;;;;;;;;;;;;;;19.17;48.80;101354.50;5039571;28;19987;-63
2023/06/13 05:26:38;;;;;;;;;;;;;;;19.24;48.68;101354.47;5035153;28;19916;-63
2023/06/13 05:29:04;;;;;;;;;;;;;;;19.31;48.45;101351.75;5038374;28;19979;-62
2023/06/13 05:31:31;;;;;;;;;;;;;;;19.39;48.20;101355.03;5043038;28;19917;-62
2023/06/13 05:33:56;;;;;;;;;;;;;;;19.44;47.84;101355.19;5041726;28;20346;-63
2023/06/13 05:36:22;;;;;;;;;;;;;;;19.48;47.59;101355.59;5042722;28;19916;-63
2023/06/13 05:38:47;;;;;;;;;;;;;;;19.52;47.77;101366.75;5044713;28;19921;-63
2023/06/13 05:41:12;;;;;;;;;;;;;;;19.53;47.17;101363.03;5039013;28;20430;-63
2023/06/13 05:43:37;;;;;;;;;;;;;;;19.57;47.84;101362.41;5039408;28;19916;-63
2023/06/13 05:46:02;;;;;;;;;;;;;;;19.60;47.67;101353.88;5034516;28;20012;-63
2023/06/13 05:48:28;;;;;;;;;;;;;;;19.64;47.68;101368.56;5037537;28;19926;-63
2023/06/13 05:50:53;;;;;;;;;;;;;;;19.68;47.53;101366.28;5050625;28;20055;-63
2023/06/13 05:53:18;;;;;;;;;;;;;;;19.73;47.50;101364.59;5042200;28;19952;-62
2023/06/13 05:55:44;;;;;;;;;;;;;;;19.77;47.34;101363.09;5048202;28;19931;-62
2023/06/13 05:58:09;;;;;;;;;;;;;;;19.84;47.53;101365.75;5035291;28;19940;-63
2023/06/13 06:00:34;;;;;;;;;;;;;;;19.93;47.65;101366.28;5040976;28;20003;-63
2023/06/13 06:03:00;;;;;;;;;;;;;;;19.96;47.08;101361.31;5048617;28;21477;-62
2023/06/13 06:05:25;;;;;;;;;;;;;;;20.00;46.75;101362.50;5039220;28;20416;-63
2023/06/13 06:07:50;;;;;;;;;;;;;;;20.02;46.25;101363.13;5038447;28;19936;-62
2023/06/13 06:10:15;;;;;;;;;;;;;;;20.05;46.93;101365.38;5037324;28;19979;-63
2023/06/13 06:12:41;;;;;;;;;;;;;;;20.12;46.36;101370.69;5038586;28;19917;-63
2023/06/13 06:15:06;;;;;;;;;;;;;;;20.17;46.24;101378.94;5036634;28;20309;-63
2023/06/13 06:17:31;;;;;;;;;;;;;;;20.21;46.06;101372.06;5040686;28;20433;-63
2023/06/13 06:19:56;;;;;;;;;;;;;;;20.26;45.96;101371.44;5037277;28;19963;-62
2023/06/13 06:22:21;;;;;;;;;;;;;;;20.30;46.22;101367.22;5040536;28;20003;-62
2023/06/13 06:24:47;;;;;;;;;;;;;;;20.36;45.83;101367.16;5037946;28;19916;-62
2023/06/13 06:27:12;;;;;;;;;;;;;;;20.43;45.39;101367.13;5032654;28;19917;-62
2023/06/13 06:29:38;;;;;;;;;;;;;;;20.50;45.62;101361.66;5042548;28;19920;-62
2023/06/13 06:32:03;;;;;;;;;;;;;;;20.57;45.93;101360.56;5039077;28;19974;-62
2023/06/13 06:34:28;;;;;;;;;;;;;;;20.65;45.47;101362.13;5045257;28;19913;-62
2023/06/13 06:36:54;;;;;;;;;;;;;;;20.71;45.29;101355.81;5037287;28;19932;-62
2023/06/13 06:39:19;;;;;;;;;;;;;;;20.78;45.83;101363.84;5040230;28;19940;-62
2023/06/13 06:41:44;;;;;;;;;;;;;;;20.88;45.82;101361.47;5043035;28;19916;-62
2023/06/13 06:44:10;;;;;;;;;;;;;;;20.97;45.46;101365.50;5037352;28;19913;-62
2023/06/13 06:46:35;;;;;;;;;;;;;;;21.04;44.89;101358.13;5036963;28;19967;-62
2023/06/13 06:49:01;;;;;;;;;;;;;;;21.11;44.95;101360.78;5039419;28;19921;-62
2023/06/13 06:51:26;;;;;;;;;;;;;;;21.17;44.60;101354.44;5047318;28;19921;-63
2023/06/13 06:53:52;;;;;;;;;;;;;;;21.21;44.46;101363.75;5037760;28;21717;-62
2023/06/13 06:56:17;;;;;;;;;;;;;;;21.24;44.41;101352.50;5045240;28;19916;-62
2023/06/13 06:58:42;;;;;;;;;;;;;;;21.30;44.03;101357.00;5051189;28;19925;-61
2023/06/13 07:01:08;;;;;;;;;;;;;;;21.35;44.13;101367.94;5035146;28;20639;-62
2023/06/13 07:03:33;;;;;;;;;;;;;;;21.40;43.94;101357.28;5042709;28;19917;-62
2023/06/13 07:05:58;;;;;;;;;;;;;;;21.45;44.27;101357.41;5042617;28;19967;-62
2023/06/13 07:08:24;;;;;;;;;;;;;;;21.51;43.97;101361.91;5035422;28;19924;-61
2023/06/13 07:10:49;;;;;;;;;;;;;;;21.54;43.94;101361.44;5043857;28;19919;-63
2023/06/13 07:13:15;;;;;;;;;;;;;;;21.55;43.18;101363.09;5040266;28;20393;-62
2023/06/13 07:15:40;;;;;;;;;;;;;;;21.56;43.18;101363.91;5035897;28;20003;-63
2023/06/13 07:18:06;;;;;;;;;;;;;;;21.56;43.01;101364.72;5037928;28;19928;-62
2023/06/13 07:20:31;;;;;;;;;;;;;;;21.56;42.59;101361.19;5041508;28;20403;-62
2023/06/13 07:22:57;;;;;;;;;;;;;;;21.57;43.26;101362.84;5036284;28;19921;-62
2023/06/13 07:25:22;;;;;;;;;;;;;;;21.62;44.01;101366.50;5035935;28;19967;-62
2023/06/13 07:27:47;;;;;;;;;;;;;;;21.68;43.41;101367.44;5034012;28;20358;-62
2023/06/13 07:30:12;;;;;;;;;;;;;;;21.74;43.81;101374.66;5029202;28;19920;-62
2023/06/13 07:32:37;;;;;;;;;;;;;;;21.78;43.48;101375.03;5029474;28;20396;-62
2023/06/13 07:35:03;;;;;;;;;;;;;;;21.84;43.98;101368.69;5035454;28;19917;-62
2023/06/13 07:37:28;;;;;;;;;;;;;;;21.89;43.60;101360.69;5033402;28;20204;-62
2023/06/13 07:39:53;;;;;;;;;;;;;;;21.97;43.85;101363.03;5028597;28;19913;-63
2023/06/13 07:42:18;;;;;;;;;;;;;;;22.05;43.55;101362.75;5028926;28;19913;-62
2023/06/13 07:44:43;;;;;;;;;;;;;;;22.07;42.96;101360.63;5041870;28;19917;-62
2023/06/13 07:47:10;;;;;;;;;;;;;;;22.08;42.12;101361.47;5034190;28;19957;-62
2023/06/13 07:49:35;;;;;;;;;;;;;;;22.09;42.04;101371.22;5039946;28;20008;-62
2023/06/13 07:52:00;;;;;;;;;;;;;;;22.05;41.84;101368.16;5038769;28;20008;-62
2023/06/13 07:54:26;;;;;;;;;;;;;;;22.11;42.21;101363.69;5031577;28;19917;-62
2023/06/13 07:56:52;;;;;;;;;;;;;;;22.19;42.39;101363.34;5036274;28;19957;-63
2023/06/13 07:59:17;;;;;;;;;;;;;;;22.26;41.70;101361.34;5035594;28;19955;-62
2023/06/13 08:01:42;;;;;;;;;;;;;;;22.27;41.56;101362.19;5036900;28;20297;-62
2023/06/13 08:04:07;;;;;;;;;;;;;;;22.30;41.38;101367.94;5030514;28;20007;-62
2023/06/13 08:06:33;;;;;;;;;;;;;;;22.38;42.42;101362.19;5037444;28;19917;-63
2023/06/13 08:08:58;;;;;;;;;;;;;;;22.47;41.93;101363.47;5044041;28;19923;-62
2023/06/13 08:11:23;;;;;;;;;;;;;;;22.55;42.49;101355.00;5038115;28;19920;-62
2023/06/13 08:13:48;;;;;;;;;;;;;;;22.66;41.82;101357.91;5044262;28;19917;-62
2023/06/13 08:16:13;;;;;;;;;;;;;;;22.72;41.87;101355.06;5036359;28;19929;-62
2023/06/13 08:18:39;;;;;;;;;;;;;;;22.82;42.05;101354.47;5029685;28;19966;-62
2023/06/13 08:21:04;;;;;;;;;;;;;;;22.88;41.09;101356.25;5045410;28;19921;-63
2023/06/13 08:23:29;;;;;;;;;;;;;;;22.91;40.67;101358.47;5031692;28;19948;-63
2023/06/13 08:25:54;;;;;;;;;;;;;;;22.97;40.54;101360.22;5034282;28;19917;-62
2023/06/13 08:28:20;;;;;;;;;;;;;;;23.02;40.95;101360.31;5031399;28;19924;-63
2023/06/13 08:30:46;;;;;;;;;;;;;;;23.13;41.41;101361.34;5044211;28;19920;-62
2023/06/13 08:33:12;;;;;;;;;;;;;;;23.25;40.27;101358.59;5030170;28;19921;-63
2023/06/13 08:35:37;;;;;;;;;;;;;;;23.26;40.21;101360.25;5036402;28;20420;-62
2023/06/13 08:38:02;;;;;;;;;;;;;;;23.35;40.29;101364.22;5039200;28;19925;-62
2023/06/13 08:40:27;;;;;;;;;;;;;;;23.45;39.92;101365.25;5029930;28;19989;-62
2023/06/13 08:42:53;;;;;;;;;;;;;;;23.54;39.38;101359.41;5038077;28;20377;-63
2023/06/13 08:45:18;;;;;;;;;;;;;;;23.61;38.80;101355.50;5034767;28;19921;-62
2023/06/13 08:47:46;;;;;;;;;;;;;;;23.70;38.94;101356.75;5033673;28;19932;-62
2023/06/13 08:50:13;;;;;;;;;;;;;;;23.76;38.83;101350.34;5033205;28;20007;-62
2023/06/13 08:52:41;;;;;;;;;;;;;;;23.90;38.68;101355.44;5033884;28;19921;-63
2023/06/13 08:55:09;;;;;;;;;;;;;;;24.01;38.76;101349.13;5038113;28;19956;-63
2023/06/13 08:57:37;;;;;;;;;;;;;;;24.09;38.65;101352.25;5036549;28;20008;-62
2023/06/13 09:00:04;;;;;;;;;;;;;;;24.16;38.04;101345.81;5029826;28;19936;-62
2023/06/13 09:02:31;;;;;;;;;;;;;;;24.22;37.71;101353.78;5035866;28;20011;-62
2023/06/13 09:04:57;;;;;;;;;;;;;;;24.26;37.09;101332.38;5038404;28;19920;-62
2023/06/13 09:07:22;;;;;;;;;;;;;;;24.31;37.12;101344.19;5045538;28;19914;-62
2023/06/13 09:09:48;;;;;;;;;;;;;;;24.37;37.23;101339.66;5030631;28;19917;-63
2023/06/13 09:12:16;;;;;;;;;;;;;;;24.52;37.69;101325.47;5036954;28;20286;-62
2023/06/13 09:14:41;;;;;;;;;;;;;;;24.77;37.64;101333.13;5039812;28;21302;-62
2023/06/13 09:17:07;;;;;;;;;;;;;;;24.97;37.20;101330.66;5035987;28;20016;-62
2023/06/13 09:19:32;;;;;;;;;;;;;;;25.06;36.53;101331.88;5036418;28;19913;-63
2023/06/13 09:21:57;;;;;;;;;;;;;;;25.12;36.31;101332.72;5032779;28;19919;-63
2023/06/13 09:24:25;;;;;;;;;;;;;;;25.22;36.00;101341.03;5031158;28;20322;-62
2023/06/13 09:26:51;;;;;;;;;;;;;;;25.28;35.88;101338.09;5032989;28;19914;-63
2023/06/13 09:29:17;;;;;;;;;;;;;;;25.39;35.99;101330.84;5033231;28;19956;-63
2023/06/13 09:31:42;;;;;;;;;;;;;;;25.51;35.79;101339.69;5044768;28;20091;-62
2023/06/13 09:34:07;;;;;;;;;;;;;;;25.67;35.54;101332.50;5036422;28;19917;-63
2023/06/13 09:36:35;;;;;;;;;;;;;;;25.79;35.07;101335.06;5032110;28;19956;-63
2023/06/13 09:39:00;;;;;;;;;;;;;;;25.74;33.82;101324.16;5030240;28;20357;-62
2023/06/13 09:41:26;;;;;;;;;;;;;;;25.70;34.24;101331.16;5034547;28;20054;-62
2023/06/13 09:43:54;;;;;;;;;;;;;;;25.63;34.00;101326.72;5039201;28;20416;-62
2023/06/13 09:46:23;;;;;;;;;;;;;;;25.65;33.77;101323.75;5036545;28;19920;-63
2023/06/13 09:48:49;;;;;;;;;;;;;;;25.70;34.40;101321.09;5037652;28;20278;-63
2023/06/13 09:51:15;;;;;;;;;;;;;;;25.79;34.31;101319.56;5038563;28;19942;-62
2023/06/13 09:53:43;;;;;;;;;;;;;;;25.88;34.01;101322.59;5035001;28;20431;-62
2023/06/13 09:56:09;;;;;;;;;;;;;;;25.91;33.15;101330.25;5042182;28;19917;-63
2023/06/13 09:58:36;;;;;;;;;;;;;;;25.93;33.58;101328.91;5029925;28;19924;-62
2023/06/13 10:01:03;;;;;;;;;;;;;;;26.06;33.82;101343.16;5036422;28;20028;-63
2023/06/13 10:03:28;;;;;;;;;;;;;;;26.03;33.23;101324.63;5032112;28;19913;-63
2023/06/13 10:05:54;;;;;;;;;;;;;;;26.05;33.63;101328.72;5030951;28;20020;-63
2023/06/13 10:08:19;;;;;;;;;;;;;;;26.11;32.68;101327.69;5039113;28;19931;-63
2023/06/13 10:10:44;;;;;;;;;;;;;;;26.12;32.88;101323.88;5043260;28;19924;-63
2023/06/13 10:13:15;;;;;;;;;;;;;;;26.18;33.34;101317.38;5033770;28;19913;-63
2023/06/13 10:15:44;;;;;;;;;;;;;;;26.32;33.05;101325.09;5037710;28;20356;-63
2023/06/13 10:18:11;;;;;;;;;;;;;;;26.37;32.77;101319.69;5036839;28;20020;-62
2023/06/13 10:20:37;;;;;;;;;;;;;;;26.46;32.80;101323.56;5038708;28;19921;-63
2023/06/13 10:23:03;;;;;;;;;;;;;;;26.58;32.86;101324.16;5047784;28;19931;-63
2023/06/13 10:25:29;;;;;;;;;;;;;;;26.66;32.18;101325.56;5030713;28;20056;-63
2023/06/13 10:27:55;;;;;;;;;;;;;;;26.73;32.15;101310.59;5034715;28;20522;-63
2023/06/13 10:30:40;;;;;;;;;;;;;;;26.77;31.81;101311.69;5037488;28;19959;-62
2023/06/13 10:33:18;;;;;;;;;;;;;;;26.78;31.49;101310.63;5031701;28;20287;-63
2023/06/13 10:35:53;;;;;;;;;;;;;;;26.85;31.64;101305.72;5038027;28;19917;-63
2023/06/13 10:38:38;;;;;;;;;;;;;;;26.85;31.33;101313.91;5034814;28;20419;-63
2023/06/13 10:41:03;;;;;;;;;;;;;;;26.88;30.95;101314.44;5031137;28;20670;-63
2023/06/13 10:43:28;;;;;;;;;;;;;;;26.96;30.55;101313.97;5039086;28;20314;-62
2023/06/13 10:45:55;;;;;;;;;;;;;;;27.11;30.37;101325.75;5033353;28;19924;-63
2023/06/13 10:48:36;;;;;;;;;;;;;;;27.12;30.25;101315.66;5037359;28;20431;-63
2023/06/13 10:51:02;;;;;;;;;;;;;;;27.10;29.74;101323.28;5038784;28;20410;-63
2023/06/13 10:53:27;;;;;;;;;;;;;;;27.11;29.54;101325.75;5033245;28;19920;-63
2023/06/13 10:56:00;;;;;;;;;;;;;;;27.17;29.93;101315.66;5036320;28;19913;-63
2023/06/13 10:58:26;;;;;;;;;;;;;;;27.26;29.74;101316.78;5030318;28;19917;-63
2023/06/13 11:00:51;;;;;;;;;;;;;;;27.31;29.74;101322.25;5032422;28;19924;-62
2023/06/13 11:03:16;;;;;;;;;;;;;;;27.43;29.90;101308.34;5035100;28;20332;-63
2023/06/13 11:05:44;;;;;;;;;;;;;;;27.48;29.24;101307.53;5033721;28;20378;-63
2023/06/13 11:08:23;;;;;;;;;;;;;;;27.52;29.38;101297.72;5031326;28;19916;-63
2023/06/13 11:10:49;;;;;;;;;;;;;;;27.58;29.41;101307.53;5038423;28;19924;-63
2023/06/13 11:13:18;;;;;;;;;;;;;;;27.62;29.25;101297.75;5040255;28;20177;-63
2023/06/13 11:15:44;;;;;;;;;;;;;;;27.68;29.08;101294.72;5039222;28;19917;-63
2023/06/13 11:18:09;;;;;;;;;;;;;;;27.72;29.81;101295.00;5033631;28;19940;-62
2023/06/13 11:20:46;;;;;;;;;;;;;;;27.82;29.91;101297.75;5033566;28;20423;-63
2023/06/13 11:23:13;;;;;;;;;;;;;;;27.97;29.53;101296.88;5036303;28;19956;-63
2023/06/13 11:25:38;;;;;;;;;;;;;;;28.01;28.93;101296.06;5031011;28;19924;-63
2023/06/13 11:28:04;;;;;;;;;;;;;;;28.03;28.78;101295.78;5039093;28;19917;-64
2023/06/13 11:30:30;;;;;;;;;;;;;;;27.97;28.67;101297.72;5038940;28;19961;-64
2023/06/13 11:32:55;;;;;;;;;;;;;;;27.96;28.69;101290.59;5044915;28;19920;-65
2023/06/13 11:35:23;;;;;;;;;;;;;;;28.00;28.66;101293.59;5028872;28;19921;-64
2023/06/13 11:37:56;;;;;;;;;;;;;;;28.08;28.55;101302.06;5034998;28;20392;-64
2023/06/13 11:40:23;;;;;;;;;;;;;;;28.02;27.70;101299.59;5047700;28;20576;-64
2023/06/13 11:42:51;;;;;;;;;;;;;;;28.01;28.00;101298.78;5040281;28;19955;-63
2023/06/13 11:45:16;;;;;;;;;;;;;;;28.08;28.07;101301.25;5031777;28;19918;-64
2023/06/13 11:47:45;;;;;;;;;;;;;;;28.21;27.98;101297.94;5036296;28;19913;-64
2023/06/13 11:50:10;;;;;;;;;;;;;;;28.33;28.22;101289.44;5042564;28;19928;-63
2023/06/13 11:52:35;;;;;;;;;;;;;;;28.49;28.70;101291.03;5030273;28;19921;-64
2023/06/13 11:55:15;;;;;;;;;;;;;;;28.52;27.67;101295.13;5032703;28;19917;-64
2023/06/13 11:57:43;;;;;;;;;;;;;;;28.58;27.48;101296.75;5036564;28;20012;-63
2023/06/13 12:00:09;;;;;;;;;;;;;;;28.57;26.59;101286.91;5037394;28;20615;-64
2023/06/13 12:02:34;;;;;;;;;;;;;;;28.58;26.58;101291.28;5041598;28;20717;-64
2023/06/13 12:04:59;;;;;;;;;;;;;;;28.58;26.09;101283.06;5043703;28;19936;-64
2023/06/13 12:07:26;;;;;;;;;;;;;;;28.62;25.76;101286.88;5037533;28;19924;-64
2023/06/13 12:09:52;;;;;;;;;;;;;;;28.73;26.48;101284.94;5037737;28;19931;-64
2023/06/13 12:12:17;;;;;;;;;;;;;;;28.62;26.16;101282.25;5041466;28;19912;-64
2023/06/13 12:14:42;;;;;;;;;;;;;;;28.66;26.60;101288.81;5045226;28;20374;-64
2023/06/13 12:17:09;;;;;;;;;;;;;;;28.64;26.79;101274.59;5038264;28;19956;-64
2023/06/13 12:19:35;;;;;;;;;;;;;;;28.55;26.92;101280.91;5042326;28;20526;-63
2023/06/13 12:22:00;;;;;;;;;;;;;;;28.45;27.11;101279.03;5036352;28;19962;-65
2023/06/13 12:24:26;;;;;;;;;;;;;;;28.53;26.70;101270.25;5034719;28;20603;-64
2023/06/13 12:26:52;;;;;;;;;;;;;;;28.60;26.58;101270.75;5038612;28;20019;-64
2023/06/13 12:29:22;;;;;;;;;;;;;;;28.59;26.09;101277.31;5036128;28;19913;-64
2023/06/13 12:31:48;;;;;;;;;;;;;;;28.68;26.49;101285.78;5032729;28;19960;-64